F/V Carmalia — FMFK — position and weather

sailwx.info

Track history (hours):
 
Tides and Currents Weather Stations Pressure Air Temp Water Temp Dewpoint Dewpoint Depression Visibility Wind Speed Wind Dir Waves Ship Positions

F/V Carmalia

Last reported at 2017-Jan-16 10:30 UTC. Time now 2017-Jan-20 05:36 UTC.
Position N 47°39' W 003°50'.

Length 17 m.

Type: Fishing. MMSI: 228222900.

Date/timePositionNaut miles runAvg speedWind from/ knotsBaromVisibWave heightAir tempDewpointWater temp
2017-Jan-16 10:30N 47°39' W 003°50'9 9.3
2017-Jan-16 09:33N 47°40' W 003°37'9 9.3
2017-Jan-16 08:33N 47°41' W 003°23'3 2.6
2017-Jan-16 07:33N 47°44' W 003°22'  
2017-Jan-13 15:04N 47°44' W 003°22'0 0.0
2017-Jan-13 14:34N 47°44' W 003°22'0 0.0
2017-Jan-12 18:23N 47°44' W 003°22'0 0.1
2017-Jan-12 17:33N 47°44' W 003°22'0 0.1
2017-Jan-12 16:33N 47°44' W 003°22'0 0.0
2017-Jan-12 15:33N 47°44' W 003°22'8 8.3
2017-Jan-12 14:33N 47°40' W 003°33'10 9.4
2017-Jan-12 13:33N 47°39' W 003°47'56 3.9
2017-Jan-11 23:18N 47°30' W 005°09'8 3.6
2017-Jan-11 21:04N 47°24' W 005°02'5 2.5
2017-Jan-11 19:14N 47°21' W 004°57'2 2.5
2017-Jan-11 18:33N 47°21' W 004°59'2 1.9
2017-Jan-11 17:33N 47°20' W 005°01'1 0.6
2017-Jan-11 16:28N 47°20' W 005°02'3 3.4
2017-Jan-11 15:30N 47°23' W 005°04'5 3.6
2017-Jan-11 14:04N 47°27' W 005°07'2 3.4
2017-Jan-11 13:33N 47°29' W 005°08'4 3.5
2017-Jan-11 12:27N 47°32' W 005°10'1 0.9
2017-Jan-11 11:33N 47°33' W 005°11'1 0.9
2017-Jan-11 10:32N 47°32' W 005°12'1 0.6
2017-Jan-11 09:33N 47°32' W 005°13'63 1.7
2017-Jan-09 19:32N 47°40' W 003°40'8 8.2
2017-Jan-09 18:33N 47°41' W 003°28'5 5.3
2017-Jan-09 17:33N 47°44' W 003°22'0 0.1
2017-Jan-09 16:33N 47°44' W 003°22'0 0.0
2017-Jan-09 15:33N 47°44' W 003°22'4 3.8
2017-Jan-09 14:33N 47°41' W 003°26'10 9.8
2017-Jan-09 13:33N 47°40' W 003°40'12 9.7
2017-Jan-09 12:17N 47°39' W 003°58'51 1.8
2017-Jan-08 07:30N 47°39' W 005°15'1 0.7
2017-Jan-08 06:30N 47°39' W 005°15'2 1.7
2017-Jan-08 05:32N 47°40' W 005°17'3 2.7
2017-Jan-08 04:33N 47°38' W 005°19'2 2.5
2017-Jan-08 03:33N 47°35' W 005°21'5 0.2
2017-Jan-07 02:09N 47°39' W 005°18'2 0.5
2017-Jan-06 22:27N 47°41' W 005°16'3 3.0
2017-Jan-06 21:28N 47°38' W 005°17'63 6.4
2017-Jan-06 11:33N 47°40' W 003°43'9 9.5
2017-Jan-06 10:33N 47°41' W 003°29'  
Track history (hours):
 
Tides and Currents Weather Stations Pressure Air Temp Water Temp Dewpoint Dewpoint Depression Visibility Wind Speed Wind Dir Waves Ship Positions

F/V Carmalia

Last reported at 2017-Jan-16 10:30 UTC. Time now 2017-Jan-20 05:36 UTC.
Position N 47°39' W 003°50'.

Length 17 m.

Type: Fishing. MMSI: 228222900.

Date/timePositionNaut miles runAvg speedWind from/ knotsBaromVisibWave heightAir tempDewpointWater temp
2017-Jan-16 10:30N 47°39' W 003°50'9 9.3
2017-Jan-16 09:33N 47°40' W 003°37'9 9.3
2017-Jan-16 08:33N 47°41' W 003°23'3 2.6
2017-Jan-16 07:33N 47°44' W 003°22'  
2017-Jan-13 15:04N 47°44' W 003°22'0 0.0
2017-Jan-13 14:34N 47°44' W 003°22'0 0.0
2017-Jan-12 18:23N 47°44' W 003°22'0 0.1
2017-Jan-12 17:33N 47°44' W 003°22'0 0.1
2017-Jan-12 16:33N 47°44' W 003°22'0 0.0
2017-Jan-12 15:33N 47°44' W 003°22'8 8.3
2017-Jan-12 14:33N 47°40' W 003°33'10 9.4
2017-Jan-12 13:33N 47°39' W 003°47'56 3.9
2017-Jan-11 23:18N 47°30' W 005°09'8 3.6
2017-Jan-11 21:04N 47°24' W 005°02'5 2.5
2017-Jan-11 19:14N 47°21' W 004°57'2 2.5
2017-Jan-11 18:33N 47°21' W 004°59'2 1.9
2017-Jan-11 17:33N 47°20' W 005°01'1 0.6
2017-Jan-11 16:28N 47°20' W 005°02'3 3.4
2017-Jan-11 15:30N 47°23' W 005°04'5 3.6
2017-Jan-11 14:04N 47°27' W 005°07'2 3.4
2017-Jan-11 13:33N 47°29' W 005°08'4 3.5
2017-Jan-11 12:27N 47°32' W 005°10'1 0.9
2017-Jan-11 11:33N 47°33' W 005°11'1 0.9
2017-Jan-11 10:32N 47°32' W 005°12'1 0.6
2017-Jan-11 09:33N 47°32' W 005°13'63 1.7
2017-Jan-09 19:32N 47°40' W 003°40'8 8.2
2017-Jan-09 18:33N 47°41' W 003°28'5 5.3
2017-Jan-09 17:33N 47°44' W 003°22'0 0.1
2017-Jan-09 16:33N 47°44' W 003°22'0 0.0
2017-Jan-09 15:33N 47°44' W 003°22'4 3.8
2017-Jan-09 14:33N 47°41' W 003°26'10 9.8
2017-Jan-09 13:33N 47°40' W 003°40'12 9.7
2017-Jan-09 12:17N 47°39' W 003°58'51 1.8
2017-Jan-08 07:30N 47°39' W 005°15'1 0.7
2017-Jan-08 06:30N 47°39' W 005°15'2 1.7
2017-Jan-08 05:32N 47°40' W 005°17'3 2.7
2017-Jan-08 04:33N 47°38' W 005°19'2 2.5
2017-Jan-08 03:33N 47°35' W 005°21'5 0.2
2017-Jan-07 02:09N 47°39' W 005°18'2 0.5
2017-Jan-06 22:27N 47°41' W 005°16'3 3.0
2017-Jan-06 21:28N 47°38' W 005°17'63 6.4
2017-Jan-06 11:33N 47°40' W 003°43'9 9.5
2017-Jan-06 10:33N 47°41' W 003°29'  

Dump ship's entire track history